Time;durP1;ratioP1;P1;durP2;ratioP2;P2;SDS_P1;SDS_P2;PMS_P1;PMS_P2;Temp;Humidity;BMP_temperature;BMP_pressure;BME280_temperature;BME280_humidity;BME280_pressure;Samples;Min_cycle;Max_cycle;Signal;HPM_P1;HPM_P2
2022/05/07 00:00:31;;;;;;;5.40;2.90;;;14.10;77.80;;;;;;5091304;28;20032;-37
2022/05/07 00:02:57;;;;;;;8.75;3.22;;;14.10;77.50;;;;;;5091080;28;20027;-37
2022/05/07 00:05:22;;;;;;;5.32;2.70;;;14.00;77.60;;;;;;5091562;28;20031;-36
2022/05/07 00:07:48;;;;;;;5.85;2.67;;;14.10;77.60;;;;;;5091354;28;20022;-36
2022/05/07 00:10:14;;;;;;;5.07;3.08;;;14.00;78.10;;;;;;5091196;28;20145;-37
2022/05/07 00:12:40;;;;;;;4.32;2.70;;;14.00;78.00;;;;;;5090494;28;20485;-37
2022/05/07 00:15:06;;;;;;;2.58;2.38;;;13.90;78.70;;;;;;5091010;28;20035;-36
2022/05/07 00:20:15;;;;;;;4.53;2.67;;;13.80;80.10;;;;;;5091243;28;20047;-37
2022/05/07 00:22:41;;;;;;;7.78;2.72;;;13.70;80.20;;;;;;5073716;28;20016;-36
2022/05/07 00:25:07;;;;;;;4.28;2.95;;;13.60;80.70;;;;;;5086983;28;20013;-36
2022/05/07 00:27:32;;;;;;;4.60;2.92;;;13.50;81.10;;;;;;5091223;28;20039;-37
2022/05/07 00:29:58;;;;;;;5.40;3.20;;;13.40;83.10;;;;;;5091282;28;20092;-37
2022/05/07 00:32:23;;;;;;;6.38;2.90;;;13.30;83.70;;;;;;5090250;28;20039;-36
2022/05/07 00:34:49;;;;;;;5.32;3.53;;;13.20;84.80;;;;;;5090709;28;20031;-36
2022/05/07 00:37:14;;;;;;;7.00;2.58;;;13.10;85.30;;;;;;5090367;28;20532;-37
2022/05/07 00:39:40;;;;;;;3.20;2.90;;;13.00;85.80;;;;;;5076825;28;20066;-37
2022/05/07 00:42:06;;;;;;;4.65;3.28;;;13.00;86.20;;;;;;5073528;28;20104;-37
2022/05/07 00:44:33;;;;;;;4.90;3.30;;;12.90;87.50;;;;;;5070860;28;20377;-36
2022/05/07 00:47:11;;;;;;;4.32;3.33;;;12.80;89.00;;;;;;5082086;28;20024;-37
2022/05/07 00:49:37;;;;;;;4.78;3.70;;;12.70;90.20;;;;;;5090565;28;20076;-36
2022/05/07 00:52:03;;;;;;;3.10;2.78;;;12.60;90.80;;;;;;5089931;28;20036;-37
2022/05/07 00:54:28;;;;;;;6.68;3.70;;;12.50;91.50;;;;;;5090364;28;20485;-37
2022/05/07 00:56:54;;;;;;;4.60;3.55;;;12.50;92.50;;;;;;5090121;28;20481;-37
2022/05/07 00:59:19;;;;;;;3.90;3.50;;;12.40;93.40;;;;;;5090501;28;20024;-37
2022/05/07 01:01:45;;;;;;;3.92;3.13;;;12.40;93.90;;;;;;5089444;28;20028;-37
2022/05/07 01:04:11;;;;;;;6.65;3.50;;;12.30;94.90;;;;;;5088745;28;20024;-37
2022/05/07 01:06:38;;;;;;;8.32;3.63;;;12.30;95.60;;;;;;5082249;28;20092;-37
2022/05/07 01:09:04;;;;;;;5.13;3.60;;;12.20;96.90;;;;;;5073666;28;20409;-37
2022/05/07 01:11:31;;;;;;;5.57;3.55;;;12.20;97.60;;;;;;5088864;28;20111;-37
2022/05/07 01:13:56;;;;;;;5.22;4.25;;;12.10;98.60;;;;;;5088052;28;20027;-37
2022/05/07 01:16:24;;;;;;;7.82;3.97;;;12.00;99.00;;;;;;5089902;28;20032;-37
2022/05/07 01:18:49;;;;;;;5.95;4.15;;;12.00;99.90;;;;;;5089892;28;20047;-37
2022/05/07 01:21:17;;;;;;;6.85;4.30;;;12.00;99.90;;;;;;5089651;28;20051;-37
2022/05/07 01:23:43;;;;;;;7.03;4.40;;;11.90;99.90;;;;;;5089109;28;20461;-38
2022/05/07 01:26:10;;;;;;;8.43;4.45;;;11.90;99.90;;;;;;5089616;28;20050;-37
2022/05/07 01:28:36;;;;;;;6.20;4.25;;;12.00;99.90;;;;;;5089324;28;20242;-37
2022/05/07 01:31:02;;;;;;;6.90;4.90;;;11.80;99.90;;;;;;5089473;28;20024;-37
2022/05/07 01:33:28;;;;;;;5.53;4.05;;;11.80;99.90;;;;;;5088874;28;20103;-37
2022/05/07 01:35:53;;;;;;;5.60;4.32;;;11.80;99.90;;;;;;5088168;28;20064;-37
2022/05/07 01:38:19;;;;;;;6.80;4.85;;;11.80;99.90;;;;;;5072920;28;20448;-37
2022/05/07 01:40:44;;;;;;;7.70;4.47;;;11.80;99.90;;;;;;5082581;28;20024;-37
2022/05/07 01:43:10;;;;;;;5.78;4.50;;;11.70;99.90;;;;;;5072341;28;20270;-37
2022/05/07 01:45:35;;;;;;;7.53;4.53;;;11.60;99.90;;;;;;5080959;28;20273;-37
2022/05/07 01:48:10;;;;;;;5.70;4.30;;;11.60;99.90;;;;;;5089453;28;20093;-37
2022/05/07 01:50:42;;;;;;;6.57;4.95;;;11.60;99.90;;;;;;5088688;28;20282;-37
2022/05/07 01:53:14;;;;;;;8.52;5.18;;;11.60;99.90;;;;;;5088634;28;20496;-37
2022/05/07 01:55:39;;;;;;;6.00;5.13;;;11.50;99.90;;;;;;5087856;28;20442;-37
2022/05/07 01:58:05;;;;;;;6.70;4.45;;;11.50;99.90;;;;;;5088974;28;20028;-37
2022/05/07 02:00:32;;;;;;;9.38;5.28;;;11.40;99.90;;;;;;5089338;28;20027;-38
2022/05/07 02:02:58;;;;;;;8.63;4.13;;;11.40;99.90;;;;;;5088487;28;20028;-37
2022/05/07 02:05:25;;;;;;;6.30;4.30;;;11.30;99.90;;;;;;5089474;28;20538;-37
2022/05/07 02:07:51;;;;;;;6.40;4.72;;;11.40;99.90;;;;;;5088971;28;20016;-37
2022/05/07 02:10:17;;;;;;;5.45;4.55;;;11.30;99.90;;;;;;5087786;28;20039;-37
2022/05/07 02:12:42;;;;;;;6.38;4.25;;;11.20;99.90;;;;;;5081016;28;20025;-37
2022/05/07 02:15:08;;;;;;;4.50;4.00;;;11.20;99.90;;;;;;5073329;28;20029;-37
2022/05/07 02:17:34;;;;;;;6.93;5.38;;;11.20;99.90;;;;;;5088854;28;20059;-38
2022/05/07 02:19:59;;;;;;;8.32;5.00;;;11.10;99.90;;;;;;5088967;28;20032;-55
2022/05/07 02:22:25;;;;;;;5.95;4.90;;;11.00;99.90;;;;;;5088734;28;20020;-38
2022/05/07 02:24:51;;;;;;;8.27;5.25;;;11.00;99.90;;;;;;5088935;28;20016;-45
2022/05/07 02:27:16;;;;;;;7.43;4.15;;;11.00;99.90;;;;;;5088965;28;20114;-47
2022/05/07 02:29:42;;;;;;;8.32;4.95;;;10.90;99.90;;;;;;5088598;28;20095;-45
2022/05/07 02:32:07;;;;;;;6.57;4.82;;;10.90;99.90;;;;;;5088332;28;20280;-45
2022/05/07 02:34:34;;;;;;;5.10;4.38;;;10.90;99.90;;;;;;5088851;28;20028;-45
2022/05/07 02:37:01;;;;;;;8.73;4.82;;;10.90;99.90;;;;;;5088765;28;20485;-46
2022/05/07 02:39:26;;;;;;;6.68;4.93;;;10.90;99.90;;;;;;5088831;28;20052;-45
2022/05/07 02:44:37;;;;;;;6.97;5.10;;;10.80;99.90;;;;;;5070156;28;20136;-46
2022/05/07 02:47:04;;;;;;;5.97;5.03;;;10.80;99.90;;;;;;5084649;28;20517;-47
2022/05/07 02:49:32;;;;;;;5.47;4.55;;;10.80;99.90;;;;;;5088636;28;20036;-46
2022/05/07 02:51:58;;;;;;;6.72;4.57;;;10.70;99.90;;;;;;5088469;28;20057;-45
2022/05/07 02:54:24;;;;;;;6.47;4.45;;;10.70;99.90;;;;;;5083552;28;20108;-46
2022/05/07 02:56:49;;;;;;;8.73;4.68;;;10.70;99.90;;;;;;5080180;28;20021;-46
2022/05/07 02:59:15;;;;;;;8.70;4.75;;;10.70;99.90;;;;;;5088449;28;20034;-47
2022/05/07 03:01:41;;;;;;;7.60;5.03;;;10.60;99.90;;;;;;5090124;28;20036;-46
2022/05/07 03:04:08;;;;;;;8.25;4.85;;;10.60;99.90;;;;;;5092816;28;20055;-45
2022/05/07 03:06:34;;;;;;;7.68;5.53;;;10.60;99.90;;;;;;5092681;28;20026;-45
2022/05/07 03:09:00;;;;;;;8.50;5.50;;;10.60;99.90;;;;;;5092804;28;20030;-47
2022/05/07 03:11:25;;;;;;;7.85;5.38;;;10.60;99.90;;;;;;5092713;28;20024;-48
2022/05/07 03:13:51;;;;;;;9.10;5.70;;;10.50;99.90;;;;;;5091810;28;20397;-45
2022/05/07 03:16:16;;;;;;;8.60;5.78;;;10.50;99.90;;;;;;5092699;28;20039;-45
2022/05/07 03:18:41;;;;;;;6.65;5.40;;;10.40;99.90;;;;;;5092467;28;20039;-46
2022/05/07 03:21:07;;;;;;;7.40;5.50;;;10.40;99.90;;;;;;5092343;28;20473;-45
2022/05/07 03:23:32;;;;;;;9.55;6.30;;;10.40;99.90;;;;;;5091768;28;20020;-47
2022/05/07 03:25:58;;;;;;;7.13;5.65;;;10.40;99.90;;;;;;5081125;28;20413;-47
2022/05/07 03:28:23;;;;;;;6.82;4.93;;;10.40;99.90;;;;;;5084692;28;20056;-45
2022/05/07 03:30:49;;;;;;;7.15;5.28;;;10.50;99.90;;;;;;5061317;28;20029;-45
2022/05/07 03:33:14;;;;;;;6.80;5.20;;;10.50;99.90;;;;;;5068192;28;20564;-45
2022/05/07 03:35:40;;;;;;;6.70;4.90;;;10.60;99.90;;;;;;5071913;28;20024;-45
2022/05/07 03:38:06;;;;;;;6.15;5.30;;;10.60;99.90;;;;;;5064611;28;20135;-48
2022/05/07 03:40:32;;;;;;;6.38;4.70;;;10.60;99.90;;;;;;5060470;28;20035;-45
2022/05/07 03:42:58;;;;;;;6.78;5.25;;;10.70;99.90;;;;;;5060333;28;20032;-45
2022/05/07 03:45:23;;;;;;;9.20;5.55;;;10.80;99.90;;;;;;5060583;28;20021;-45
2022/05/07 03:47:49;;;;;;;6.88;4.90;;;11.00;99.90;;;;;;5069929;28;20056;-37
2022/05/07 03:50:15;;;;;;;9.63;5.18;;;11.10;99.90;;;;;;5071488;28;20074;-42
2022/05/07 03:55:24;;;;;;;7.53;5.28;;;11.30;99.90;;;;;;5069858;28;20043;-37
2022/05/07 03:57:50;;;;;;;7.97;5.40;;;11.40;99.90;;;;;;5083692;28;20027;-37
2022/05/07 04:00:16;;;;;;;8.13;4.95;;;11.40;99.90;;;;;;5091301;28;20699;-37
2022/05/07 04:02:41;;;;;;;7.28;5.00;;;11.40;99.90;;;;;;5090854;28;20028;-37
2022/05/07 04:05:07;;;;;;;6.50;4.85;;;11.50;99.90;;;;;;5091136;28;20119;-38
2022/05/07 04:07:33;;;;;;;5.88;4.88;;;11.60;99.90;;;;;;5091119;28;20111;-37
2022/05/07 04:09:59;;;;;;;6.50;4.53;;;11.60;99.90;;;;;;5091146;28;20282;-37
2022/05/07 04:12:24;;;;;;;5.70;4.82;;;11.70;99.90;;;;;;5089552;28;20023;-37
2022/05/07 04:14:51;;;;;;;7.88;5.00;;;11.80;99.90;;;;;;5090667;28;20051;-37
2022/05/07 04:17:16;;;;;;;7.53;5.28;;;11.80;99.90;;;;;;5091032;28;20024;-37
2022/05/07 04:19:42;;;;;;;7.55;4.80;;;11.90;99.90;;;;;;5091169;28;20081;-37
2022/05/07 04:22:07;;;;;;;7.60;4.93;;;11.90;99.90;;;;;;5090728;28;20118;-37
2022/05/07 04:24:33;;;;;;;7.80;4.93;;;12.00;99.90;;;;;;5086931;28;20020;-37
2022/05/07 04:27:00;;;;;;;6.32;4.40;;;12.10;99.90;;;;;;5082784;28;20044;-37
2022/05/07 04:29:25;;;;;;;8.65;4.40;;;12.10;99.90;;;;;;5090508;28;20016;-37
2022/05/07 04:31:51;;;;;;;7.80;4.80;;;12.20;99.90;;;;;;5090148;28;20559;-37
2022/05/07 04:34:16;;;;;;;6.25;4.57;;;12.30;99.90;;;;;;5090937;28;20024;-37
2022/05/07 04:36:42;;;;;;;6.57;4.30;;;12.30;99.90;;;;;;5090643;28;20051;-38
2022/05/07 04:39:08;;;;;;;7.20;4.78;;;12.40;99.90;;;;;;5085748;28;20262;-37
2022/05/07 04:41:33;;;;;;;5.43;4.30;;;12.40;99.90;;;;;;5081815;28;20133;-37
2022/05/07 04:44:01;;;;;;;8.50;4.90;;;12.50;99.90;;;;;;5089895;28;20016;-37
2022/05/07 04:46:26;;;;;;;6.35;4.60;;;12.50;99.90;;;;;;5084333;28;20035;-37
2022/05/07 04:48:52;;;;;;;9.25;5.80;;;12.60;99.90;;;;;;5075127;28;20020;-37
2022/05/07 04:51:17;;;;;;;11.50;5.78;;;12.60;99.90;;;;;;5074728;28;20025;-37
2022/05/07 04:53:44;;;;;;;9.48;4.82;;;12.70;99.90;;;;;;5058848;28;20065;-37
2022/05/07 04:56:10;;;;;;;6.10;4.75;;;12.80;99.90;;;;;;5064141;28;20021;-37
2022/05/07 04:58:35;;;;;;;7.47;4.93;;;12.80;99.90;;;;;;5069584;28;20056;-37
2022/05/07 05:01:01;;;;;;;5.25;4.63;;;12.90;99.90;;;;;;5069454;28;20116;-37
2022/05/07 05:03:26;;;;;;;6.38;4.57;;;13.00;99.90;;;;;;5053784;28;20565;-37
2022/05/07 05:05:52;;;;;;;9.43;5.28;;;13.00;99.90;;;;;;5049935;28;20033;-37
2022/05/07 05:08:17;;;;;;;6.25;4.65;;;13.10;99.90;;;;;;5076437;28;20107;-37
2022/05/07 05:10:43;;;;;;;6.88;4.43;;;13.10;99.90;;;;;;5090069;28;20036;-37
2022/05/07 05:13:09;;;;;;;8.20;4.95;;;13.20;99.90;;;;;;5088907;28;20026;-37
2022/05/07 05:15:35;;;;;;;8.07;4.40;;;13.30;99.90;;;;;;5089919;28;20020;-37
2022/05/07 05:18:00;;;;;;;6.32;4.85;;;13.30;99.90;;;;;;5089824;28;20065;-39
2022/05/07 05:20:26;;;;;;;13.38;5.57;;;13.40;99.90;;;;;;5088514;28;20035;-37
2022/05/07 05:22:51;;;;;;;7.63;4.97;;;13.40;99.90;;;;;;5088957;28;20017;-37
2022/05/07 05:25:19;;;;;;;16.00;7.32;;;13.50;99.90;;;;;;5089426;28;20046;-37
2022/05/07 05:27:45;;;;;;;10.27;6.72;;;13.60;99.90;;;;;;5089767;28;20024;-37
2022/05/07 05:30:11;;;;;;;8.25;5.70;;;13.60;99.90;;;;;;5089515;28;20020;-37
2022/05/07 05:32:37;;;;;;;7.47;5.43;;;13.70;99.90;;;;;;5074341;28;20033;-37
2022/05/07 05:35:03;;;;;;;10.23;5.70;;;13.70;99.90;;;;;;5070977;28;20032;-38
2022/05/07 05:37:30;;;;;;;6.60;5.25;;;13.80;99.90;;;;;;5077528;28;20426;-38
2022/05/07 05:39:56;;;;;;;10.45;6.40;;;13.90;99.90;;;;;;5083274;28;20012;-41
2022/05/07 05:42:21;;;;;;;9.25;5.70;;;14.00;99.90;;;;;;5070217;28;20047;-38
2022/05/07 05:44:46;;;;;;;8.73;5.65;;;14.20;99.90;;;;;;5070639;28;20454;-38
2022/05/07 05:47:12;;;;;;;8.93;5.93;;;14.40;99.90;;;;;;5070929;28;20052;-38
2022/05/07 05:49:38;;;;;;;8.07;6.30;;;14.50;99.90;;;;;;5070782;28;20358;-38
2022/05/07 05:52:05;;;;;;;10.07;6.47;;;14.60;99.90;;;;;;5070128;28;20071;-38
2022/05/07 05:54:31;;;;;;;11.07;7.05;;;14.70;99.90;;;;;;5070750;28;20123;-38
2022/05/07 05:56:57;;;;;;;9.45;6.70;;;14.80;99.90;;;;;;5070695;28;20549;-38
2022/05/07 05:59:23;;;;;;;12.88;7.32;;;14.90;99.90;;;;;;5070304;28;20081;-39
2022/05/07 06:01:49;;;;;;;8.30;6.30;;;14.90;99.90;;;;;;5069703;28;20446;-38
2022/05/07 06:04:15;;;;;;;9.10;6.75;;;15.00;99.90;;;;;;5070436;28;20055;-37
2022/05/07 06:06:41;;;;;;;11.07;7.43;;;15.10;99.90;;;;;;5072914;28;20099;-38
2022/05/07 06:09:06;;;;;;;8.80;6.57;;;15.20;99.80;;;;;;5082018;28;20031;-38
2022/05/07 06:11:32;;;;;;;10.30;6.03;;;15.30;99.80;;;;;;5090080;28;20127;-38
2022/05/07 06:13:57;;;;;;;9.25;7.10;;;15.30;99.60;;;;;;5082179;28;20032;-37
2022/05/07 06:16:23;;;;;;;8.43;6.10;;;15.40;99.00;;;;;;5061838;28;20054;-36
2022/05/07 06:18:49;;;;;;;7.82;6.10;;;15.50;99.30;;;;;;5053189;28;20033;-36
2022/05/07 06:21:15;;;;;;;10.52;7.10;;;15.50;99.20;;;;;;5048660;28;20364;-37
2022/05/07 06:23:40;;;;;;;10.23;7.13;;;15.50;98.60;;;;;;5048130;28;20103;-37
2022/05/07 06:28:50;;;;;;;9.63;6.88;;;15.50;98.90;;;;;;5048244;28;20032;-37
2022/05/07 06:31:17;;;;;;;13.90;8.18;;;15.50;99.20;;;;;;5048892;28;20025;-36
2022/05/07 06:33:43;;;;;;;14.63;8.65;;;15.50;99.50;;;;;;5046147;28;20469;-36
2022/05/07 06:36:09;;;;;;;12.88;8.75;;;15.40;99.40;;;;;;5047592;28;20135;-43
2022/05/07 06:38:34;;;;;;;13.52;7.93;;;15.50;99.40;;;;;;5068267;28;20378;-44
2022/05/07 06:41:02;;;;;;;12.68;9.00;;;15.60;99.50;;;;;;5068249;28;20099;-44
2022/05/07 06:43:31;;;;;;;10.30;8.18;;;15.50;99.40;;;;;;5067068;28;20017;-44
2022/05/07 06:45:58;;;;;;;13.20;8.88;;;15.60;99.80;;;;;;5068147;28;20024;-46
2022/05/07 06:48:24;;;;;;;13.00;8.50;;;15.60;99.70;;;;;;5068161;28;20025;-45
2022/05/07 06:50:50;;;;;;;12.38;7.40;;;15.60;99.50;;;;;;5067952;28;20028;-43
2022/05/07 06:53:16;;;;;;;9.40;7.78;;;15.80;99.90;;;;;;5067591;28;20627;-45
2022/05/07 06:55:58;;;;;;;16.20;8.82;;;16.00;99.70;;;;;;5068328;28;20032;-45
2022/05/07 06:58:34;;;;;;;12.30;8.57;;;16.20;99.30;;;;;;5068087;28;20050;-45
2022/05/07 07:01:01;;;;;;;13.40;8.30;;;16.40;98.70;;;;;;5068403;28;20024;-44
2022/05/07 07:03:27;;;;;;;13.68;8.30;;;16.50;98.70;;;;;;5067679;28;20019;-46
2022/05/07 07:05:55;;;;;;;11.93;7.70;;;16.70;98.50;;;;;;5068194;28;20032;-44
2022/05/07 07:08:21;;;;;;;9.32;7.60;;;16.80;98.30;;;;;;5078084;28;20095;-45
2022/05/07 07:10:46;;;;;;;16.42;9.20;;;17.00;98.30;;;;;;5087218;28;20119;-46
2022/05/07 07:13:12;;;;;;;12.75;8.63;;;17.20;97.90;;;;;;5086558;28;20034;-47
2022/05/07 07:15:41;;;;;;;10.98;8.20;;;17.30;98.20;;;;;;5088318;28;20111;-47
2022/05/07 07:18:09;;;;;;;12.85;7.95;;;17.60;97.30;;;;;;5088484;28;20094;-46
2022/05/07 07:20:37;;;;;;;12.80;9.80;;;17.80;97.00;;;;;;5088360;28;20027;-47
2022/05/07 07:23:02;;;;;;;12.48;8.43;;;17.80;96.10;;;;;;5087627;28;20035;-46
2022/05/07 07:25:28;;;;;;;12.40;7.43;;;17.90;96.90;;;;;;5088253;28;20024;-48
2022/05/07 07:27:54;;;;;;;11.57;7.63;;;17.90;96.70;;;;;;5087888;28;20062;-46
2022/05/07 07:30:19;;;;;;;8.57;6.53;;;18.10;96.80;;;;;;5088280;28;20137;-46
2022/05/07 07:32:46;;;;;;;13.55;8.45;;;18.20;96.50;;;;;;5087559;28;20031;-45
2022/05/07 07:35:11;;;;;;;12.82;8.43;;;18.30;96.50;;;;;;5088339;28;20032;-44
2022/05/07 07:37:36;;;;;;;12.75;8.48;;;18.30;96.10;;;;;;5080714;28;20116;-45
2022/05/07 07:40:04;;;;;;;14.30;8.73;;;18.20;96.40;;;;;;5074259;28;20078;-45
2022/05/07 07:42:30;;;;;;;12.73;8.13;;;18.20;96.80;;;;;;5086739;28;20016;-48
2022/05/07 07:48:03;;;;;;;16.30;10.57;;;18.10;97.20;;;;;;5073380;28;20077;-47
2022/05/07 07:50:34;;;;;;;16.00;9.90;;;18.20;96.10;;;;;;5091592;28;20023;-48
2022/05/07 07:53:09;;;;;;;15.82;10.38;;;18.20;96.00;;;;;;5089715;28;20051;-45
2022/05/07 07:55:36;;;;;;;9.45;7.88;;;18.40;96.50;;;;;;5089997;28;20028;-46
2022/05/07 07:58:04;;;;;;;12.07;7.82;;;18.40;95.80;;;;;;5091122;28;20020;-45
2022/05/07 08:00:31;;;;;;;11.20;8.20;;;18.50;95.90;;;;;;5091367;28;20390;-44
2022/05/07 08:03:02;;;;;;;12.10;7.95;;;18.50;95.70;;;;;;5090726;28;20048;-44
2022/05/07 08:05:32;;;;;;;12.77;8.60;;;18.60;96.20;;;;;;5091344;28;20024;-44
2022/05/07 08:13:33;;;;;;;8.98;7.40;;;19.10;94.70;;;;;;5091045;28;20499;-43
2022/05/07 08:15:59;;;;;;;19.45;8.70;;;19.40;94.00;;;;;;5074261;28;20024;-43
2022/05/07 08:18:25;;;;;;;8.55;7.18;;;19.50;93.70;;;;;;5089912;28;20031;-43
2022/05/07 08:20:50;;;;;;;8.63;6.45;;;19.50;94.00;;;;;;5091555;28;20404;-44
2022/05/07 08:23:16;;;;;;;15.52;8.05;;;19.30;94.00;;;;;;5090662;28;20027;-44
2022/05/07 08:25:41;;;;;;;10.20;7.38;;;19.10;94.10;;;;;;5090857;28;20023;-46
2022/05/07 08:28:08;;;;;;;13.38;7.97;;;19.00;94.80;;;;;;5090598;28;20389;-46
2022/05/07 08:30:36;;;;;;;12.00;8.57;;;18.80;94.60;;;;;;5090747;28;20444;-44
2022/05/07 08:33:06;;;;;;;9.25;7.55;;;18.70;95.00;;;;;;5090104;28;20097;-43
2022/05/07 08:35:32;;;;;;;10.95;7.28;;;18.70;94.40;;;;;;5090961;28;20024;-46
2022/05/07 08:37:57;;;;;;;10.13;7.95;;;18.80;94.90;;;;;;5090856;28;20031;-46
2022/05/07 08:40:24;;;;;;;12.35;8.77;;;18.90;95.40;;;;;;5090630;28;20219;-46
2022/05/07 08:42:50;;;;;;;17.38;8.73;;;19.10;94.50;;;;;;5089660;28;20016;-46
2022/05/07 08:45:16;;;;;;;10.82;8.80;;;19.20;93.80;;;;;;5063437;28;20025;-46
2022/05/07 08:47:42;;;;;;;17.95;8.32;;;19.10;94.70;;;;;;5081810;28;20013;-47
2022/05/07 08:50:09;;;;;;;10.13;8.95;;;19.20;93.90;;;;;;5088974;28;20032;-43
2022/05/07 08:52:41;;;;;;;13.13;9.15;;;19.20;94.60;;;;;;5089756;28;20032;-44
2022/05/07 08:55:07;;;;;;;12.98;10.40;;;19.30;94.60;;;;;;5090390;28;20600;-43
2022/05/07 08:57:32;;;;;;;13.18;9.38;;;19.40;94.60;;;;;;5089152;28;20028;-45
2022/05/07 08:59:58;;;;;;;13.40;8.63;;;19.40;94.50;;;;;;5089572;28;20016;-44
2022/05/07 09:02:23;;;;;;;14.68;9.60;;;19.50;95.10;;;;;;5089598;28;20509;-43
2022/05/07 09:04:59;;;;;;;11.10;8.10;;;19.40;97.30;;;;;;5090386;28;20025;-43
2022/05/07 09:07:24;;;;;;;12.18;9.18;;;19.10;97.50;;;;;;5090420;28;20036;-43
2022/05/07 09:09:51;;;;;;;11.48;9.00;;;18.90;97.70;;;;;;5090298;28;20025;-43
2022/05/07 09:12:28;;;;;;;12.70;9.00;;;18.60;98.50;;;;;;5089319;28;20223;-43
2022/05/07 09:14:59;;;;;;;11.23;9.90;;;18.50;99.90;;;;;;5079109;28;20029;-43
2022/05/07 09:17:25;;;;;;;14.43;10.63;;;18.30;99.90;;;;;;5085082;28;20378;-43
2022/05/07 09:19:52;;;;;;;11.63;9.05;;;18.20;99.90;;;;;;5069806;28;20099;-44
2022/05/07 09:22:17;;;;;;;15.85;9.80;;;18.10;99.90;;;;;;5069230;28;20029;-44
2022/05/07 09:24:55;;;;;;;19.48;10.88;;;18.10;99.90;;;;;;5069809;28;20078;-44
2022/05/07 09:27:22;;;;;;;14.05;9.63;;;18.20;99.90;;;;;;5069602;28;20050;-45
2022/05/07 09:30:02;;;;;;;13.35;9.98;;;18.40;99.90;;;;;;5069588;28;20021;-47
2022/05/07 09:32:38;;;;;;;15.15;10.82;;;18.40;99.90;;;;;;5068872;28;20025;-44
2022/05/07 09:38:01;;;;;;;14.55;10.85;;;18.50;99.90;;;;;;5069717;28;20535;-44
2022/05/07 09:40:27;;;;;;;16.75;10.13;;;18.70;99.90;;;;;;5069441;28;20032;-44
2022/05/07 09:42:59;;;;;;;15.77;11.65;;;19.10;99.90;;;;;;5069007;28;20060;-44
2022/05/07 09:45:26;;;;;;;18.95;12.02;;;19.40;99.70;;;;;;5063964;28;20028;-44
2022/05/07 09:47:53;;;;;;;14.02;10.82;;;19.70;98.30;;;;;;5080930;28;20020;-45
2022/05/07 09:50:52;;;;;;;13.25;9.60;;;19.70;99.60;;;;;;5074943;28;20075;-45
2022/05/07 09:58:46;;;;;;;14.13;9.38;;;20.70;96.50;;;;;;5089259;28;20093;-44
2022/05/07 10:01:24;;;;;;;10.75;7.88;;;20.90;96.10;;;;;;5087698;28;20020;-44
2022/05/07 10:03:58;;;;;;;13.90;10.65;;;22.10;96.30;;;;;;5087359;28;20381;-45
2022/05/07 10:06:40;;;;;;;11.57;9.27;;;23.50;93.30;;;;;;5089226;28;20028;-48
2022/05/07 10:09:41;;;;;;;12.38;8.85;;;24.60;90.50;;;;;;5089155;28;20190;-45
2022/05/07 10:12:08;;;;;;;11.48;7.32;;;25.20;90.40;;;;;;5087819;28;20024;-45
2022/05/07 10:14:33;;;;;;;8.13;7.10;;;26.10;83.80;;;;;;5088806;28;20028;-45
2022/05/07 10:17:10;;;;;;;9.73;7.50;;;26.80;77.00;;;;;;5088972;28;20027;-45
2022/05/07 10:19:41;;;;;;;9.63;8.13;;;27.10;75.70;;;;;;5077769;28;20016;-46
2022/05/07 10:22:23;;;;;;;8.82;7.70;;;27.40;75.80;;;;;;5079828;28;20043;-45
2022/05/07 10:25:05;;;;;;;9.68;7.00;;;27.60;71.40;;;;;;5089224;28;20020;-45
2022/05/07 10:27:36;;;;;;;12.75;9.43;;;27.90;69.50;;;;;;5088714;28;20024;-45
2022/05/07 10:30:06;;;;;;;10.73;7.85;;;27.80;66.10;;;;;;5088504;28;20107;-45
2022/05/07 10:32:57;;;;;;;12.93;7.40;;;27.30;68.80;;;;;;5088310;28;20050;-46
2022/05/07 10:35:41;;;;;;;10.90;8.50;;;26.80;68.40;;;;;;5088772;28;20024;-46
2022/05/07 10:38:08;;;;;;;10.05;8.52;;;26.50;69.30;;;;;;5087260;28;20016;-45
2022/05/07 10:40:34;;;;;;;10.93;7.97;;;26.50;68.80;;;;;;5080012;28;20404;-45
2022/05/07 10:43:00;;;;;;;16.42;10.18;;;26.50;69.20;;;;;;5088210;28;20119;-44
2022/05/07 10:45:27;;;;;;;8.85;6.68;;;27.20;68.00;;;;;;5088359;28;20024;-44
2022/05/07 10:47:54;;;;;;;11.32;7.80;;;27.20;69.30;;;;;;5088749;28;20026;-44
2022/05/07 10:50:22;;;;;;;8.10;5.43;;;27.80;65.80;;;;;;5088762;28;20304;-45
2022/05/07 10:52:56;;;;;;;10.43;7.47;;;28.80;65.20;;;;;;5086527;28;20077;-45
2022/05/07 10:55:26;;;;;;;8.18;5.47;;;28.70;60.70;;;;;;5088876;28;20145;-45
2022/05/07 10:57:52;;;;;;;;;;;29.10;61.50;;;;;;5081319;28;20021;-48
2022/05/07 11:00:20;;;;;;;14.13;7.32;;;29.40;60.50;;;;;;5075261;28;19916;-45
2022/05/07 11:02:48;;;;;;;8.65;6.25;;;29.40;58.60;;;;;;5088247;28;20020;-45
2022/05/07 11:05:15;;;;;;;10.70;5.60;;;28.90;58.50;;;;;;5088358;28;20024;-45
2022/05/07 11:07:41;;;;;;;7.40;6.45;;;28.50;60.30;;;;;;5088469;28;20047;-45
2022/05/07 11:10:07;;;;;;;10.30;8.15;;;28.10;60.80;;;;;;5088314;28;20502;-44
2022/05/07 11:12:35;;;;;;;10.02;6.43;;;27.00;61.10;;;;;;5087838;28;20029;-45
2022/05/07 11:15:04;;;;;;;9.32;7.50;;;26.40;64.40;;;;;;5088124;28;20020;-45
2022/05/07 11:17:35;;;;;;;10.20;8.52;;;25.50;65.80;;;;;;5088694;28;20028;-44
2022/05/07 11:20:01;;;;;;;12.02;9.75;;;25.10;66.40;;;;;;5088615;28;20020;-44
2022/05/07 11:22:30;;;;;;;13.32;10.75;;;25.10;67.90;;;;;;5089410;28;20028;-44
2022/05/07 11:25:00;;;;;;;10.32;8.35;;;25.30;67.40;;;;;;5092263;28;20158;-44
2022/05/07 11:27:32;;;;;;;;;;;25.80;66.30;;;;;;5091765;28;20545;-44
2022/05/07 11:30:04;;;;;;;10.05;7.82;;;26.60;62.70;;;;;;5075153;28;20166;-48
2022/05/07 11:32:38;;;;;;;12.95;8.50;;;27.30;65.70;;;;;;5089540;28;20024;-44
2022/05/07 11:35:04;;;;;;;11.07;8.10;;;28.00;61.50;;;;;;5090787;28;20077;-45
2022/05/07 11:37:41;;;;;;;14.52;10.50;;;28.30;62.30;;;;;;5091965;28;20501;-45
2022/05/07 11:40:08;;;;;;;11.95;10.10;;;28.50;60.00;;;;;;5091706;28;20094;-44
2022/05/07 11:42:46;;;;;;;12.73;9.25;;;29.00;60.30;;;;;;5091525;28;20028;-45
2022/05/07 11:45:33;;;;;;;11.75;8.60;;;29.50;57.90;;;;;;5072045;28;20074;-45
2022/05/07 11:48:00;;;;;;;8.50;7.32;;;29.90;58.90;;;;;;5086801;28;20027;-45
2022/05/07 11:50:27;;;;;;;13.10;10.23;;;30.00;56.80;;;;;;5091783;28;20021;-45
2022/05/07 11:52:53;;;;;;;11.18;9.27;;;31.20;54.80;;;;;;5089684;28;20047;-47
2022/05/07 11:55:29;;;;;;;11.70;10.52;;;29.90;54.30;;;;;;5091408;28;20044;-45
2022/05/07 11:57:58;;;;;;;10.95;9.45;;;29.80;53.50;;;;;;5091374;28;20032;-45
2022/05/07 12:00:26;;;;;;;13.55;10.30;;;29.10;56.70;;;;;;5091379;28;20093;-46
2022/05/07 12:03:02;;;;;;;10.75;9.55;;;28.90;55.70;;;;;;5091087;28;20016;-46
2022/05/07 12:05:48;;;;;;;13.93;12.05;;;28.20;57.00;;;;;;5091916;28;20104;-44
2022/05/07 12:08:38;;;;;;;14.73;12.25;;;28.40;55.00;;;;;;5091576;28;20438;-47
2022/05/07 12:11:04;;;;;;;12.38;10.38;;;27.80;55.80;;;;;;5090842;28;20044;-44
2022/05/07 12:13:30;;;;;;;13.70;10.88;;;27.20;57.50;;;;;;5085051;28;20035;-45
2022/05/07 12:18:46;;;;;;;15.18;9.30;;;25.50;58.90;;;;;;5051038;28;20035;-44
2022/05/07 12:21:11;;;;;;;8.65;7.75;;;24.90;59.80;;;;;;5051138;28;20025;-44
2022/05/07 12:31:52;;;;;;;9.77;6.88;;;25.40;57.60;;;;;;5050131;28;20525;-44
2022/05/07 12:34:18;;;;;;;9.77;8.23;;;25.90;60.70;;;;;;5049728;28;20087;-47
2022/05/07 12:36:45;;;;;;;13.82;8.90;;;26.20;57.90;;;;;;5050664;28;20433;-44
2022/05/07 12:39:11;;;;;;;8.90;6.35;;;26.00;58.60;;;;;;5050776;28;20029;-45
2022/05/07 12:41:41;;;;;;;10.30;5.88;;;26.10;58.50;;;;;;5050227;28;20028;-44
2022/05/07 12:44:06;;;;;;;;;;;25.80;57.30;;;;;;5050550;28;20028;-45
2022/05/07 12:46:32;;;;;;;7.78;6.30;;;26.00;58.20;;;;;;5081666;28;20273;-46
2022/05/07 12:48:58;;;;;;;17.52;7.93;;;25.40;59.20;;;;;;5089334;28;20589;-44
2022/05/07 12:51:25;;;;;;;10.75;7.97;;;25.50;59.30;;;;;;5091100;28;20103;-45
2022/05/07 12:53:54;;;;;;;12.57;6.80;;;25.50;59.10;;;;;;5090337;28;20378;-44
2022/05/07 12:56:22;;;;;;;9.15;5.18;;;25.80;60.80;;;;;;5090386;28;20378;-44
2022/05/07 12:58:47;;;;;;;8.63;6.57;;;26.30;60.30;;;;;;5090125;28;20060;-45
2022/05/07 13:01:13;;;;;;;11.00;7.03;;;26.30;57.20;;;;;;5090664;28;20457;-44
2022/05/07 13:03:39;;;;;;;10.27;7.13;;;26.10;57.60;;;;;;5090193;28;20021;-45
2022/05/07 13:06:04;;;;;;;13.23;6.65;;;25.90;56.00;;;;;;5083723;28;20024;-44
2022/05/07 13:08:30;;;;;;;12.95;5.50;;;25.90;58.60;;;;;;5081577;28;20487;-45
2022/05/07 13:10:55;;;;;;;9.50;5.18;;;25.80;57.60;;;;;;5089990;28;20126;-45
2022/05/07 13:13:23;;;;;;;8.15;4.95;;;25.80;57.60;;;;;;5088498;28;20094;-45
2022/05/07 13:15:49;;;;;;;8.00;4.47;;;26.30;56.30;;;;;;5089811;28;20533;-45
2022/05/07 13:18:15;;;;;;;7.10;4.45;;;26.50;55.30;;;;;;5089877;28;20047;-47
2022/05/07 13:20:40;;;;;;;6.00;3.97;;;26.60;56.40;;;;;;5090305;28;20074;-44
2022/05/07 13:23:06;;;;;;;7.45;4.65;;;26.40;59.20;;;;;;5088097;28;20449;-43